sensor_id;sensor_type;location;lat;lon;timestamp;P1;P2;P0
46681;PMS5003;34101;53.430;-2.224;2022-11-15T00:00:08;1;1;
46681;PMS5003;34101;53.430;-2.224;2022-11-15T00:02:36;4;2;
46681;PMS5003;34101;53.430;-2.224;2022-11-15T00:05:04;2;2;
46681;PMS5003;34101;53.430;-2.224;2022-11-15T00:07:31;2;2;
46681;PMS5003;34101;53.430;-2.224;2022-11-15T00:09:58;3;2;
46681;PMS5003;34101;53.430;-2.224;2022-11-15T00:12:26;2;2;
46681;PMS5003;34101;53.430;-2.224;2022-11-15T00:14:54;6;3;
46681;PMS5003;34101;53.430;-2.224;2022-11-15T00:17:21;4;3;
46681;PMS5003;34101;53.430;-2.224;2022-11-15T00:19:49;3;3;
46681;PMS5003;34101;53.430;-2.224;2022-11-15T00:22:16;4;2;
46681;PMS5003;34101;53.430;-2.224;2022-11-15T00:24:44;2;2;
46681;PMS5003;34101;53.430;-2.224;2022-11-15T00:27:11;3;3;
46681;PMS5003;34101;53.430;-2.224;2022-11-15T00:29:38;3;2;
46681;PMS5003;34101;53.430;-2.224;2022-11-15T00:32:06;2;2;
46681;PMS5003;34101;53.430;-2.224;2022-11-15T00:34:33;3;2;
46681;PMS5003;34101;53.430;-2.224;2022-11-15T00:37:01;2;2;
46681;PMS5003;34101;53.430;-2.224;2022-11-15T00:39:28;2;2;
46681;PMS5003;34101;53.430;-2.224;2022-11-15T00:41:56;5;1;
46681;PMS5003;34101;53.430;-2.224;2022-11-15T00:44:23;2;2;
46681;PMS5003;34101;53.430;-2.224;2022-11-15T00:46:50;2;2;
46681;PMS5003;34101;53.430;-2.224;2022-11-15T00:49:18;1;1;
46681;PMS5003;34101;53.430;-2.224;2022-11-15T00:51:45;4;1;
46681;PMS5003;34101;53.430;-2.224;2022-11-15T00:54:12;1;1;
46681;PMS5003;34101;53.430;-2.224;2022-11-15T00:56:40;3;3;
46681;PMS5003;34101;53.430;-2.224;2022-11-15T00:59:07;2;2;
46681;PMS5003;34101;53.430;-2.224;2022-11-15T01:01:35;4;3;
46681;PMS5003;34101;53.430;-2.224;2022-11-15T01:04:02;2;2;
46681;PMS5003;34101;53.430;-2.224;2022-11-15T01:06:29;3;1;
46681;PMS5003;34101;53.430;-2.224;2022-11-15T01:08:57;1;1;
46681;PMS5003;34101;53.430;-2.224;2022-11-15T01:11:24;2;2;
46681;PMS5003;34101;53.430;-2.224;2022-11-15T01:13:52;3;2;
46681;PMS5003;34101;53.430;-2.224;2022-11-15T01:16:19;2;2;
46681;PMS5003;34101;53.430;-2.224;2022-11-15T01:18:46;1;1;
46681;PMS5003;34101;53.430;-2.224;2022-11-15T01:21:15;2;2;
46681;PMS5003;34101;53.430;-2.224;2022-11-15T01:23:43;1;1;
46681;PMS5003;34101;53.430;-2.224;2022-11-15T01:26:11;3;1;
46681;PMS5003;34101;53.430;-2.224;2022-11-15T01:28:40;2;2;
46681;PMS5003;34101;53.430;-2.224;2022-11-15T01:31:10;2;1;
46681;PMS5003;34101;53.430;-2.224;2022-11-15T01:33:40;2;2;
46681;PMS5003;34101;53.430;-2.224;2022-11-15T01:36:11;1;1;
46681;PMS5003;34101;53.430;-2.224;2022-11-15T01:38:39;1;1;
46681;PMS5003;34101;53.430;-2.224;2022-11-15T01:41:11;3;1;
46681;PMS5003;34101;53.430;-2.224;2022-11-15T01:43:41;1;1;
46681;PMS5003;34101;53.430;-2.224;2022-11-15T01:46:12;1;1;
46681;PMS5003;34101;53.430;-2.224;2022-11-15T01:48:49;1;1;
46681;PMS5003;34101;53.430;-2.224;2022-11-15T01:51:19;2;2;
46681;PMS5003;34101;53.430;-2.224;2022-11-15T01:53:50;3;1;
46681;PMS5003;34101;53.430;-2.224;2022-11-15T01:56:22;2;0;
46681;PMS5003;34101;53.430;-2.224;2022-11-15T01:58:52;3;1;
46681;PMS5003;34101;53.430;-2.224;2022-11-15T02:01:24;1;1;
46681;PMS5003;34101;53.430;-2.224;2022-11-15T02:03:57;3;2;
46681;PMS5003;34101;53.430;-2.224;2022-11-15T02:06:27;3;1;
46681;PMS5003;34101;53.430;-2.224;2022-11-15T02:08:55;5;0;
46681;PMS5003;34101;53.430;-2.224;2022-11-15T02:11:23;1;1;
46681;PMS5003;34101;53.430;-2.224;2022-11-15T02:13:50;4;2;
46681;PMS5003;34101;53.430;-2.224;2022-11-15T02:16:20;1;1;
46681;PMS5003;34101;53.430;-2.224;2022-11-15T02:19:02;4;2;
46681;PMS5003;34101;53.430;-2.224;2022-11-15T02:21:48;3;1;
46681;PMS5003;34101;53.430;-2.224;2022-11-15T02:24:32;3;1;
46681;PMS5003;34101;53.430;-2.224;2022-11-15T02:27:20;2;0;
46681;PMS5003;34101;53.430;-2.224;2022-11-15T02:30:12;1;1;
46681;PMS5003;34101;53.430;-2.224;2022-11-15T02:33:02;1;1;
46681;PMS5003;34101;53.430;-2.224;2022-11-15T02:35:37;3;3;
46681;PMS5003;34101;53.430;-2.224;2022-11-15T02:38:11;2;1;
46681;PMS5003;34101;53.430;-2.224;2022-11-15T02:40:50;1;0;
46681;PMS5003;34101;53.430;-2.224;2022-11-15T02:43:25;2;1;
46681;PMS5003;34101;53.430;-2.224;2022-11-15T02:45:58;1;1;
46681;PMS5003;34101;53.430;-2.224;2022-11-15T02:48:31;2;1;
46681;PMS5003;34101;53.430;-2.224;2022-11-15T02:50:59;2;2;
46681;PMS5003;34101;53.430;-2.224;2022-11-15T02:53:28;1;1;
46681;PMS5003;34101;53.430;-2.224;2022-11-15T02:55:56;1;1;
46681;PMS5003;34101;53.430;-2.224;2022-11-15T02:58:32;2;2;
46681;PMS5003;34101;53.430;-2.224;2022-11-15T03:01:10;3;1;
46681;PMS5003;34101;53.430;-2.224;2022-11-15T03:03:50;2;2;
46681;PMS5003;34101;53.430;-2.224;2022-11-15T03:06:27;4;2;
46681;PMS5003;34101;53.430;-2.224;2022-11-15T03:09:03;2;2;
46681;PMS5003;34101;53.430;-2.224;2022-11-15T03:11:35;3;3;
46681;PMS5003;34101;53.430;-2.224;2022-11-15T03:14:08;3;3;
46681;PMS5003;34101;53.430;-2.224;2022-11-15T03:16:51;2;2;
46681;PMS5003;34101;53.430;-2.224;2022-11-15T03:19:28;6;3;
46681;PMS5003;34101;53.430;-2.224;2022-11-15T03:22:01;4;4;
46681;PMS5003;34101;53.430;-2.224;2022-11-15T03:24:33;2;2;
46681;PMS5003;34101;53.430;-2.224;2022-11-15T03:27:02;3;3;
46681;PMS5003;34101;53.430;-2.224;2022-11-15T03:29:33;5;3;
46681;PMS5003;34101;53.430;-2.224;2022-11-15T03:32:06;4;3;
46681;PMS5003;34101;53.430;-2.224;2022-11-15T03:34:41;3;3;
46681;PMS5003;34101;53.430;-2.224;2022-11-15T03:37:12;4;3;
46681;PMS5003;34101;53.430;-2.224;2022-11-15T03:39:41;5;3;
46681;PMS5003;34101;53.430;-2.224;2022-11-15T03:42:13;5;2;
46681;PMS5003;34101;53.430;-2.224;2022-11-15T03:44:50;3;3;
46681;PMS5003;34101;53.430;-2.224;2022-11-15T03:47:23;4;4;
46681;PMS5003;34101;53.430;-2.224;2022-11-15T03:49:57;3;3;
46681;PMS5003;34101;53.430;-2.224;2022-11-15T03:52:30;3;3;
46681;PMS5003;34101;53.430;-2.224;2022-11-15T03:55:00;3;2;
46681;PMS5003;34101;53.430;-2.224;2022-11-15T03:57:29;3;3;
46681;PMS5003;34101;53.430;-2.224;2022-11-15T03:59:57;3;3;
46681;PMS5003;34101;53.430;-2.224;2022-11-15T04:02:25;3;1;
46681;PMS5003;34101;53.430;-2.224;2022-11-15T04:04:52;2;2;
46681;PMS5003;34101;53.430;-2.224;2022-11-15T04:07:20;4;2;
46681;PMS5003;34101;53.430;-2.224;2022-11-15T04:09:47;4;3;
46681;PMS5003;34101;53.430;-2.224;2022-11-15T04:12:15;3;2;
46681;PMS5003;34101;53.430;-2.224;2022-11-15T04:14:42;4;2;
46681;PMS5003;34101;53.430;-2.224;2022-11-15T04:17:09;3;3;
46681;PMS5003;34101;53.430;-2.224;2022-11-15T04:19:37;4;2;
46681;PMS5003;34101;53.430;-2.224;2022-11-15T04:22:04;2;2;
46681;PMS5003;34101;53.430;-2.224;2022-11-15T04:24:33;3;2;
46681;PMS5003;34101;53.430;-2.224;2022-11-15T04:27:00;5;2;
46681;PMS5003;34101;53.430;-2.224;2022-11-15T04:29:28;1;1;
46681;PMS5003;34101;53.430;-2.224;2022-11-15T04:31:56;4;3;
46681;PMS5003;34101;53.430;-2.224;2022-11-15T04:34:23;3;3;
46681;PMS5003;34101;53.430;-2.224;2022-11-15T04:36:50;2;2;
46681;PMS5003;34101;53.430;-2.224;2022-11-15T04:39:18;8;3;
46681;PMS5003;34101;53.430;-2.224;2022-11-15T04:41:45;5;3;
46681;PMS5003;34101;53.430;-2.224;2022-11-15T04:44:12;4;3;
46681;PMS5003;34101;53.430;-2.224;2022-11-15T04:46:40;3;3;
46681;PMS5003;34101;53.430;-2.224;2022-11-15T04:49:07;3;3;
46681;PMS5003;34101;53.430;-2.224;2022-11-15T04:51:35;7;3;
46681;PMS5003;34101;53.430;-2.224;2022-11-15T04:54:02;2;2;
46681;PMS5003;34101;53.430;-2.224;2022-11-15T04:56:29;2;2;
46681;PMS5003;34101;53.430;-2.224;2022-11-15T04:58:57;2;2;
46681;PMS5003;34101;53.430;-2.224;2022-11-15T05:01:24;2;2;
46681;PMS5003;34101;53.430;-2.224;2022-11-15T05:03:52;2;2;
46681;PMS5003;34101;53.430;-2.224;2022-11-15T05:06:19;1;1;
46681;PMS5003;34101;53.430;-2.224;2022-11-15T05:08:46;4;2;
46681;PMS5003;34101;53.430;-2.224;2022-11-15T05:11:14;2;2;
46681;PMS5003;34101;53.430;-2.224;2022-11-15T05:13:41;2;2;
46681;PMS5003;34101;53.430;-2.224;2022-11-15T05:16:09;1;1;
46681;PMS5003;34101;53.430;-2.224;2022-11-15T05:18:36;2;2;
46681;PMS5003;34101;53.430;-2.224;2022-11-15T05:21:03;3;2;
46681;PMS5003;34101;53.430;-2.224;2022-11-15T05:23:31;2;2;
46681;PMS5003;34101;53.430;-2.224;2022-11-15T05:25:59;2;2;
46681;PMS5003;34101;53.430;-2.224;2022-11-15T05:28:26;2;2;
46681;PMS5003;34101;53.430;-2.224;2022-11-15T05:30:57;1;1;
46681;PMS5003;34101;53.430;-2.224;2022-11-15T05:33:27;1;1;
46681;PMS5003;34101;53.430;-2.224;2022-11-15T05:35:55;1;1;
46681;PMS5003;34101;53.430;-2.224;2022-11-15T05:38:29;1;0;
46681;PMS5003;34101;53.430;-2.224;2022-11-15T05:40:56;1;1;
46681;PMS5003;34101;53.430;-2.224;2022-11-15T05:43:23;1;1;
46681;PMS5003;34101;53.430;-2.224;2022-11-15T05:45:51;0;0;
46681;PMS5003;34101;53.430;-2.224;2022-11-15T05:48:18;0;0;
46681;PMS5003;34101;53.430;-2.224;2022-11-15T05:50:46;2;0;
46681;PMS5003;34101;53.430;-2.224;2022-11-15T05:53:14;0;0;
46681;PMS5003;34101;53.430;-2.224;2022-11-15T05:55:45;0;0;
46681;PMS5003;34101;53.430;-2.224;2022-11-15T05:58:12;0;0;
46681;PMS5003;34101;53.430;-2.224;2022-11-15T06:00:39;0;0;
46681;PMS5003;34101;53.430;-2.224;2022-11-15T06:03:07;0;0;
46681;PMS5003;34101;53.430;-2.224;2022-11-15T06:05:35;0;0;
46681;PMS5003;34101;53.430;-2.224;2022-11-15T06:08:02;0;0;
46681;PMS5003;34101;53.430;-2.224;2022-11-15T06:10:29;1;1;
46681;PMS5003;34101;53.430;-2.224;2022-11-15T06:12:57;1;1;
46681;PMS5003;34101;53.430;-2.224;2022-11-15T06:15:24;1;1;
46681;PMS5003;34101;53.430;-2.224;2022-11-15T06:17:51;0;0;
46681;PMS5003;34101;53.430;-2.224;2022-11-15T06:20:19;0;0;
46681;PMS5003;34101;53.430;-2.224;2022-11-15T06:22:46;0;0;
46681;PMS5003;34101;53.430;-2.224;2022-11-15T06:25:13;0;0;
46681;PMS5003;34101;53.430;-2.224;2022-11-15T06:27:41;0;0;
46681;PMS5003;34101;53.430;-2.224;2022-11-15T06:30:09;0;0;
46681;PMS5003;34101;53.430;-2.224;2022-11-15T06:32:36;1;1;
46681;PMS5003;34101;53.430;-2.224;2022-11-15T06:35:04;0;0;
46681;PMS5003;34101;53.430;-2.224;2022-11-15T06:37:33;0;0;
46681;PMS5003;34101;53.430;-2.224;2022-11-15T06:40:00;0;0;
46681;PMS5003;34101;53.430;-2.224;2022-11-15T06:42:28;1;1;
46681;PMS5003;34101;53.430;-2.224;2022-11-15T06:44:55;0;0;
46681;PMS5003;34101;53.430;-2.224;2022-11-15T06:47:23;0;0;
46681;PMS5003;34101;53.430;-2.224;2022-11-15T06:49:51;0;0;
46681;PMS5003;34101;53.430;-2.224;2022-11-15T06:52:18;0;0;
46681;PMS5003;34101;53.430;-2.224;2022-11-15T06:54:46;3;1;
46681;PMS5003;34101;53.430;-2.224;2022-11-15T06:57:13;2;1;
46681;PMS5003;34101;53.430;-2.224;2022-11-15T06:59:40;1;1;
46681;PMS5003;34101;53.430;-2.224;2022-11-15T07:02:11;1;1;
46681;PMS5003;34101;53.430;-2.224;2022-11-15T07:04:39;1;1;
46681;PMS5003;34101;53.430;-2.224;2022-11-15T07:07:06;1;1;
46681;PMS5003;34101;53.430;-2.224;2022-11-15T07:09:33;1;1;
46681;PMS5003;34101;53.430;-2.224;2022-11-15T07:12:01;1;1;
46681;PMS5003;34101;53.430;-2.224;2022-11-15T07:14:28;1;1;
46681;PMS5003;34101;53.430;-2.224;2022-11-15T07:16:56;1;1;
46681;PMS5003;34101;53.430;-2.224;2022-11-15T07:19:23;1;1;
46681;PMS5003;34101;53.430;-2.224;2022-11-15T07:21:50;0;0;
46681;PMS5003;34101;53.430;-2.224;2022-11-15T07:24:18;1;1;
46681;PMS5003;34101;53.430;-2.224;2022-11-15T07:26:45;0;0;
46681;PMS5003;34101;53.430;-2.224;2022-11-15T07:29:13;0;0;
46681;PMS5003;34101;53.430;-2.224;2022-11-15T07:31:40;0;0;
46681;PMS5003;34101;53.430;-2.224;2022-11-15T07:34:07;2;0;
46681;PMS5003;34101;53.430;-2.224;2022-11-15T07:36:35;0;0;
46681;PMS5003;34101;53.430;-2.224;2022-11-15T07:39:02;1;1;
46681;PMS5003;34101;53.430;-2.224;2022-11-15T07:41:30;0;0;
46681;PMS5003;34101;53.430;-2.224;2022-11-15T07:43:57;0;0;
46681;PMS5003;34101;53.430;-2.224;2022-11-15T07:46:24;0;0;
46681;PMS5003;34101;53.430;-2.224;2022-11-15T07:48:52;0;0;
46681;PMS5003;34101;53.430;-2.224;2022-11-15T07:51:19;0;0;
46681;PMS5003;34101;53.430;-2.224;2022-11-15T07:53:46;0;0;
46681;PMS5003;34101;53.430;-2.224;2022-11-15T07:56:14;0;0;
46681;PMS5003;34101;53.430;-2.224;2022-11-15T07:58:41;0;0;
46681;PMS5003;34101;53.430;-2.224;2022-11-15T08:01:09;2;1;
46681;PMS5003;34101;53.430;-2.224;2022-11-15T08:03:37;0;0;
46681;PMS5003;34101;53.430;-2.224;2022-11-15T08:06:10;0;0;
46681;PMS5003;34101;53.430;-2.224;2022-11-15T08:08:38;0;0;
46681;PMS5003;34101;53.430;-2.224;2022-11-15T08:11:05;0;0;
46681;PMS5003;34101;53.430;-2.224;2022-11-15T08:13:33;0;0;
46681;PMS5003;34101;53.430;-2.224;2022-11-15T08:16:00;0;0;
46681;PMS5003;34101;53.430;-2.224;2022-11-15T08:18:28;0;0;
46681;PMS5003;34101;53.430;-2.224;2022-11-15T08:20:58;0;0;
46681;PMS5003;34101;53.430;-2.224;2022-11-15T08:23:26;0;0;
46681;PMS5003;34101;53.430;-2.224;2022-11-15T08:25:58;0;0;
46681;PMS5003;34101;53.430;-2.224;2022-11-15T08:28:26;0;0;
46681;PMS5003;34101;53.430;-2.224;2022-11-15T08:30:54;0;0;
46681;PMS5003;34101;53.430;-2.224;2022-11-15T08:33:21;0;0;
46681;PMS5003;34101;53.430;-2.224;2022-11-15T08:35:49;0;0;
46681;PMS5003;34101;53.430;-2.224;2022-11-15T08:38:16;0;0;
46681;PMS5003;34101;53.430;-2.224;2022-11-15T08:40:43;0;0;
46681;PMS5003;34101;53.430;-2.224;2022-11-15T08:43:11;0;0;
46681;PMS5003;34101;53.430;-2.224;2022-11-15T08:45:38;0;0;
46681;PMS5003;34101;53.430;-2.224;2022-11-15T08:48:06;0;0;
46681;PMS5003;34101;53.430;-2.224;2022-11-15T08:50:33;0;0;
46681;PMS5003;34101;53.430;-2.224;2022-11-15T08:53:04;0;0;
46681;PMS5003;34101;53.430;-2.224;2022-11-15T08:55:31;2;0;
46681;PMS5003;34101;53.430;-2.224;2022-11-15T08:57:59;0;0;
46681;PMS5003;34101;53.430;-2.224;2022-11-15T09:00:26;0;0;
46681;PMS5003;34101;53.430;-2.224;2022-11-15T09:02:54;0;0;
46681;PMS5003;34101;53.430;-2.224;2022-11-15T09:05:21;0;0;
46681;PMS5003;34101;53.430;-2.224;2022-11-15T09:07:52;0;0;
46681;PMS5003;34101;53.430;-2.224;2022-11-15T09:10:20;0;0;
46681;PMS5003;34101;53.430;-2.224;2022-11-15T09:12:48;0;0;
46681;PMS5003;34101;53.430;-2.224;2022-11-15T09:15:15;1;0;
46681;PMS5003;34101;53.430;-2.224;2022-11-15T09:17:43;0;0;
46681;PMS5003;34101;53.430;-2.224;2022-11-15T09:20:11;0;0;
46681;PMS5003;34101;53.430;-2.224;2022-11-15T09:22:38;1;1;
46681;PMS5003;34101;53.430;-2.224;2022-11-15T09:27:00;0;0;
46681;PMS5003;34101;53.430;-2.224;2022-11-15T09:29:38;1;1;
46681;PMS5003;34101;53.430;-2.224;2022-11-15T09:32:05;1;0;
46681;PMS5003;34101;53.430;-2.224;2022-11-15T09:34:33;1;0;
46681;PMS5003;34101;53.430;-2.224;2022-11-15T09:37:00;0;0;
46681;PMS5003;34101;53.430;-2.224;2022-11-15T09:39:28;0;0;
46681;PMS5003;34101;53.430;-2.224;2022-11-15T09:41:58;1;0;
46681;PMS5003;34101;53.430;-2.224;2022-11-15T09:44:43;0;0;
46681;PMS5003;34101;53.430;-2.224;2022-11-15T09:47:40;0;0;
46681;PMS5003;34101;53.430;-2.224;2022-11-15T09:50:27;0;0;
46681;PMS5003;34101;53.430;-2.224;2022-11-15T09:52:58;0;0;
46681;PMS5003;34101;53.430;-2.224;2022-11-15T09:55:27;0;0;
46681;PMS5003;34101;53.430;-2.224;2022-11-15T09:58:03;1;0;
46681;PMS5003;34101;53.430;-2.224;2022-11-15T10:00:42;0;0;
46681;PMS5003;34101;53.430;-2.224;2022-11-15T10:03:14;0;0;
46681;PMS5003;34101;53.430;-2.224;2022-11-15T10:05:44;0;0;
46681;PMS5003;34101;53.430;-2.224;2022-11-15T10:08:20;0;0;
46681;PMS5003;34101;53.430;-2.224;2022-11-15T10:10:58;0;0;
46681;PMS5003;34101;53.430;-2.224;2022-11-15T10:13:28;1;1;
46681;PMS5003;34101;53.430;-2.224;2022-11-15T10:15:59;0;0;
46681;PMS5003;34101;53.430;-2.224;2022-11-15T10:18:38;0;0;
46681;PMS5003;34101;53.430;-2.224;2022-11-15T10:21:17;0;0;
46681;PMS5003;34101;53.430;-2.224;2022-11-15T10:23:48;0;0;
46681;PMS5003;34101;53.430;-2.224;2022-11-15T10:26:17;0;0;
46681;PMS5003;34101;53.430;-2.224;2022-11-15T10:28:44;0;0;
46681;PMS5003;34101;53.430;-2.224;2022-11-15T10:31:21;1;1;
46681;PMS5003;34101;53.430;-2.224;2022-11-15T10:33:50;0;0;
46681;PMS5003;34101;53.430;-2.224;2022-11-15T10:36:25;3;3;
46681;PMS5003;34101;53.430;-2.224;2022-11-15T10:38:54;0;0;
46681;PMS5003;34101;53.430;-2.224;2022-11-15T10:41:29;4;4;
46681;PMS5003;34101;53.430;-2.224;2022-11-15T10:44:31;0;0;
46681;PMS5003;34101;53.430;-2.224;2022-11-15T10:47:27;0;0;
46681;PMS5003;34101;53.430;-2.224;2022-11-15T10:49:56;0;0;
46681;PMS5003;34101;53.430;-2.224;2022-11-15T10:52:26;0;0;
46681;PMS5003;34101;53.430;-2.224;2022-11-15T10:54:56;0;0;
46681;PMS5003;34101;53.430;-2.224;2022-11-15T10:57:27;1;1;
46681;PMS5003;34101;53.430;-2.224;2022-11-15T10:59:58;0;0;
46681;PMS5003;34101;53.430;-2.224;2022-11-15T11:02:29;0;0;
46681;PMS5003;34101;53.430;-2.224;2022-11-15T11:04:59;0;0;
46681;PMS5003;34101;53.430;-2.224;2022-11-15T11:07:28;0;0;
46681;PMS5003;34101;53.430;-2.224;2022-11-15T11:09:57;0;0;
46681;PMS5003;34101;53.430;-2.224;2022-11-15T11:12:27;0;0;
46681;PMS5003;34101;53.430;-2.224;2022-11-15T11:14:57;0;0;
46681;PMS5003;34101;53.430;-2.224;2022-11-15T11:17:29;0;0;
46681;PMS5003;34101;53.430;-2.224;2022-11-15T11:20:04;0;0;
46681;PMS5003;34101;53.430;-2.224;2022-11-15T11:22:41;0;0;
46681;PMS5003;34101;53.430;-2.224;2022-11-15T11:25:28;0;0;
46681;PMS5003;34101;53.430;-2.224;2022-11-15T11:28:09;0;0;
46681;PMS5003;34101;53.430;-2.224;2022-11-15T11:30:50;0;0;
46681;PMS5003;34101;53.430;-2.224;2022-11-15T11:33:30;0;0;
46681;PMS5003;34101;53.430;-2.224;2022-11-15T11:36:03;1;1;
46681;PMS5003;34101;53.430;-2.224;2022-11-15T11:38:44;0;0;
46681;PMS5003;34101;53.430;-2.224;2022-11-15T11:41:27;0;0;
46681;PMS5003;34101;53.430;-2.224;2022-11-15T11:44:08;0;0;
46681;PMS5003;34101;53.430;-2.224;2022-11-15T11:46:48;0;0;
46681;PMS5003;34101;53.430;-2.224;2022-11-15T11:49:20;0;0;
46681;PMS5003;34101;53.430;-2.224;2022-11-15T11:51:53;0;0;
46681;PMS5003;34101;53.430;-2.224;2022-11-15T11:54:32;0;0;
46681;PMS5003;34101;53.430;-2.224;2022-11-15T11:57:07;0;0;
46681;PMS5003;34101;53.430;-2.224;2022-11-15T11:59:43;0;0;
46681;PMS5003;34101;53.430;-2.224;2022-11-15T12:02:17;0;0;
46681;PMS5003;34101;53.430;-2.224;2022-11-15T12:04:53;0;0;
46681;PMS5003;34101;53.430;-2.224;2022-11-15T12:07:30;0;0;
46681;PMS5003;34101;53.430;-2.224;2022-11-15T12:10:03;1;1;
46681;PMS5003;34101;53.430;-2.224;2022-11-15T12:12:41;1;1;
46681;PMS5003;34101;53.430;-2.224;2022-11-15T12:15:16;0;0;
46681;PMS5003;34101;53.430;-2.224;2022-11-15T12:17:47;1;1;
46681;PMS5003;34101;53.430;-2.224;2022-11-15T12:20:16;0;0;
46681;PMS5003;34101;53.430;-2.224;2022-11-15T12:22:47;0;0;
46681;PMS5003;34101;53.430;-2.224;2022-11-15T12:25:20;0;0;
46681;PMS5003;34101;53.430;-2.224;2022-11-15T12:27:54;2;0;
46681;PMS5003;34101;53.430;-2.224;2022-11-15T12:30:27;1;1;
46681;PMS5003;34101;53.430;-2.224;2022-11-15T12:33:28;0;0;
46681;PMS5003;34101;53.430;-2.224;2022-11-15T12:35:59;1;1;
46681;PMS5003;34101;53.430;-2.224;2022-11-15T12:38:50;1;0;
46681;PMS5003;34101;53.430;-2.224;2022-11-15T12:41:20;1;1;
46681;PMS5003;34101;53.430;-2.224;2022-11-15T12:43:49;0;0;
46681;PMS5003;34101;53.430;-2.224;2022-11-15T12:46:20;1;1;
46681;PMS5003;34101;53.430;-2.224;2022-11-15T12:49:00;1;1;
46681;PMS5003;34101;53.430;-2.224;2022-11-15T12:52:04;3;3;
46681;PMS5003;34101;53.430;-2.224;2022-11-15T12:54:50;5;5;
46681;PMS5003;34101;53.430;-2.224;2022-11-15T12:57:36;4;4;
46681;PMS5003;34101;53.430;-2.224;2022-11-15T13:00:37;5;5;
46681;PMS5003;34101;53.430;-2.224;2022-11-15T13:03:24;7;7;
46681;PMS5003;34101;53.430;-2.224;2022-11-15T13:05:59;5;5;
46681;PMS5003;34101;53.430;-2.224;2022-11-15T13:08:36;2;2;
46681;PMS5003;34101;53.430;-2.224;2022-11-15T13:12:10;4;4;
46681;PMS5003;34101;53.430;-2.224;2022-11-15T13:15:30;4;3;
46681;PMS5003;34101;53.430;-2.224;2022-11-15T13:18:23;5;5;
46681;PMS5003;34101;53.430;-2.224;2022-11-15T13:20:55;4;4;
46681;PMS5003;34101;53.430;-2.224;2022-11-15T13:23:22;4;4;
46681;PMS5003;34101;53.430;-2.224;2022-11-15T13:26:08;4;4;
46681;PMS5003;34101;53.430;-2.224;2022-11-15T13:28:42;5;5;
46681;PMS5003;34101;53.430;-2.224;2022-11-15T13:31:44;6;6;
46681;PMS5003;34101;53.430;-2.224;2022-11-15T13:34:17;4;3;
46681;PMS5003;34101;53.430;-2.224;2022-11-15T13:36:51;3;3;
46681;PMS5003;34101;53.430;-2.224;2022-11-15T13:39:27;6;3;
46681;PMS5003;34101;53.430;-2.224;2022-11-15T13:41:56;4;4;
46681;PMS5003;34101;53.430;-2.224;2022-11-15T13:44:25;3;3;
46681;PMS5003;34101;53.430;-2.224;2022-11-15T13:47:01;2;2;
46681;PMS5003;34101;53.430;-2.224;2022-11-15T13:49:30;1;1;
46681;PMS5003;34101;53.430;-2.224;2022-11-15T13:51:58;2;2;
46681;PMS5003;34101;53.430;-2.224;2022-11-15T13:54:29;3;2;
46681;PMS5003;34101;53.430;-2.224;2022-11-15T13:57:01;2;2;
46681;PMS5003;34101;53.430;-2.224;2022-11-15T13:59:31;2;2;
46681;PMS5003;34101;53.430;-2.224;2022-11-15T14:02:02;3;3;
46681;PMS5003;34101;53.430;-2.224;2022-11-15T14:04:38;3;2;
46681;PMS5003;34101;53.430;-2.224;2022-11-15T14:07:15;4;3;
46681;PMS5003;34101;53.430;-2.224;2022-11-15T14:09:44;1;1;
46681;PMS5003;34101;53.430;-2.224;2022-11-15T14:12:28;3;2;
46681;PMS5003;34101;53.430;-2.224;2022-11-15T14:14:57;4;4;
46681;PMS5003;34101;53.430;-2.224;2022-11-15T14:17:34;4;3;
46681;PMS5003;34101;53.430;-2.224;2022-11-15T14:20:19;6;4;
46681;PMS5003;34101;53.430;-2.224;2022-11-15T14:22:53;3;2;
46681;PMS5003;34101;53.430;-2.224;2022-11-15T14:25:21;4;4;
46681;PMS5003;34101;53.430;-2.224;2022-11-15T14:28:08;8;4;
46681;PMS5003;34101;53.430;-2.224;2022-11-15T14:30:38;6;3;
46681;PMS5003;34101;53.430;-2.224;2022-11-15T14:33:17;13;10;
46681;PMS5003;34101;53.430;-2.224;2022-11-15T14:35:47;12;9;
46681;PMS5003;34101;53.430;-2.224;2022-11-15T14:38:15;6;6;
46681;PMS5003;34101;53.430;-2.224;2022-11-15T14:40:43;5;4;
46681;PMS5003;34101;53.430;-2.224;2022-11-15T14:43:10;5;5;
46681;PMS5003;34101;53.430;-2.224;2022-11-15T14:45:39;12;11;
46681;PMS5003;34101;53.430;-2.224;2022-11-15T14:48:06;7;6;
46681;PMS5003;34101;53.430;-2.224;2022-11-15T14:50:33;4;4;
46681;PMS5003;34101;53.430;-2.224;2022-11-15T14:53:02;5;3;
46681;PMS5003;34101;53.430;-2.224;2022-11-15T14:55:30;5;3;
46681;PMS5003;34101;53.430;-2.224;2022-11-15T14:57:59;8;5;
46681;PMS5003;34101;53.430;-2.224;2022-11-15T15:00:27;4;3;
46681;PMS5003;34101;53.430;-2.224;2022-11-15T15:02:55;4;4;
46681;PMS5003;34101;53.430;-2.224;2022-11-15T15:05:23;3;3;
46681;PMS5003;34101;53.430;-2.224;2022-11-15T15:07:51;3;3;
46681;PMS5003;34101;53.430;-2.224;2022-11-15T15:10:19;4;3;
46681;PMS5003;34101;53.430;-2.224;2022-11-15T15:12:46;5;4;
46681;PMS5003;34101;53.430;-2.224;2022-11-15T15:22:21;5;5;
46681;PMS5003;34101;53.430;-2.224;2022-11-15T15:24:47;2;2;
46681;PMS5003;34101;53.430;-2.224;2022-11-15T15:27:15;5;3;
46681;PMS5003;34101;53.430;-2.224;2022-11-15T15:29:42;2;2;
46681;PMS5003;34101;53.430;-2.224;2022-11-15T15:32:10;4;4;
46681;PMS5003;34101;53.430;-2.224;2022-11-15T15:34:37;3;3;
46681;PMS5003;34101;53.430;-2.224;2022-11-15T15:37:06;2;2;
46681;PMS5003;34101;53.430;-2.224;2022-11-15T15:39:35;3;3;
46681;PMS5003;34101;53.430;-2.224;2022-11-15T15:42:02;6;5;
46681;PMS5003;34101;53.430;-2.224;2022-11-15T15:44:29;4;3;
46681;PMS5003;34101;53.430;-2.224;2022-11-15T15:46:57;5;4;
46681;PMS5003;34101;53.430;-2.224;2022-11-15T15:49:24;4;4;
46681;PMS5003;34101;53.430;-2.224;2022-11-15T15:51:52;7;4;
46681;PMS5003;34101;53.430;-2.224;2022-11-15T15:54:23;5;2;
46681;PMS5003;34101;53.430;-2.224;2022-11-15T15:56:51;4;4;
46681;PMS5003;34101;53.430;-2.224;2022-11-15T15:59:18;2;2;
46681;PMS5003;34101;53.430;-2.224;2022-11-15T16:01:46;4;4;
46681;PMS5003;34101;53.430;-2.224;2022-11-15T16:04:13;3;2;
46681;PMS5003;34101;53.430;-2.224;2022-11-15T16:06:41;5;2;
46681;PMS5003;34101;53.430;-2.224;2022-11-15T16:09:09;6;4;
46681;PMS5003;34101;53.430;-2.224;2022-11-15T16:11:40;7;4;
46681;PMS5003;34101;53.430;-2.224;2022-11-15T16:14:07;4;2;
46681;PMS5003;34101;53.430;-2.224;2022-11-15T16:16:34;7;5;
46681;PMS5003;34101;53.430;-2.224;2022-11-15T16:19:02;8;6;
46681;PMS5003;34101;53.430;-2.224;2022-11-15T16:21:29;5;5;
46681;PMS5003;34101;53.430;-2.224;2022-11-15T16:23:57;5;4;
46681;PMS5003;34101;53.430;-2.224;2022-11-15T16:26:25;4;4;
46681;PMS5003;34101;53.430;-2.224;2022-11-15T16:28:53;8;5;
46681;PMS5003;34101;53.430;-2.224;2022-11-15T16:31:21;4;4;
46681;PMS5003;34101;53.430;-2.224;2022-11-15T16:33:48;6;5;
46681;PMS5003;34101;53.430;-2.224;2022-11-15T16:36:18;7;5;
46681;PMS5003;34101;53.430;-2.224;2022-11-15T16:38:48;5;3;
46681;PMS5003;34101;53.430;-2.224;2022-11-15T16:41:16;4;4;
46681;PMS5003;34101;53.430;-2.224;2022-11-15T16:43:44;6;5;
46681;PMS5003;34101;53.430;-2.224;2022-11-15T16:46:13;7;5;
46681;PMS5003;34101;53.430;-2.224;2022-11-15T16:48:43;5;5;
46681;PMS5003;34101;53.430;-2.224;2022-11-15T16:51:10;7;7;
46681;PMS5003;34101;53.430;-2.224;2022-11-15T16:53:38;9;8;
46681;PMS5003;34101;53.430;-2.224;2022-11-15T16:56:22;11;9;
46681;PMS5003;34101;53.430;-2.224;2022-11-15T16:58:52;7;7;
46681;PMS5003;34101;53.430;-2.224;2022-11-15T17:01:21;5;5;
46681;PMS5003;34101;53.430;-2.224;2022-11-15T17:03:49;6;6;
46681;PMS5003;34101;53.430;-2.224;2022-11-15T17:06:17;10;10;
46681;PMS5003;34101;53.430;-2.224;2022-11-15T17:08:44;11;9;